createdAt,value
2023-09-27T00:01:29.746Z,87.20
2023-09-27T00:03:57.421Z,87.09
2023-09-27T00:06:25.241Z,86.88
2023-09-27T00:08:52.682Z,86.73
2023-09-27T00:11:20.596Z,86.62
2023-09-27T00:13:48.162Z,86.66
2023-09-27T00:16:15.486Z,86.96
2023-09-27T00:18:42.817Z,86.73
2023-09-27T00:21:10.096Z,86.42
2023-09-27T00:23:37.355Z,86.88
2023-09-27T00:26:04.939Z,87.55
2023-09-27T00:28:32.298Z,87.64
2023-09-27T00:30:59.646Z,87.27
2023-09-27T00:33:27.028Z,87.71
2023-09-27T00:35:54.605Z,86.23
2023-09-27T00:38:21.936Z,86.66
2023-09-27T00:40:49.446Z,87.79
2023-09-27T00:43:29.681Z,87.43
2023-09-27T00:46:07.352Z,87.27
2023-09-27T00:48:36.303Z,88.11
2023-09-27T00:51:03.738Z,89.24
2023-09-27T00:53:33.319Z,89.00
2023-09-27T00:56:01.311Z,88.91
2023-09-27T00:58:28.790Z,88.82
2023-09-27T01:00:56.078Z,88.36
2023-09-27T01:03:23.405Z,88.80
2023-09-27T01:05:50.805Z,89.39
2023-09-27T01:08:18.211Z,89.47
2023-09-27T01:10:46.241Z,89.67
2023-09-27T01:13:13.735Z,89.25
2023-09-27T01:15:42.175Z,88.54
2023-09-27T01:18:09.727Z,88.88
2023-09-27T01:20:37.138Z,88.94
2023-09-27T01:23:05.027Z,89.02
2023-09-27T01:25:39.117Z,89.53
2023-09-27T01:28:08.583Z,90.02
2023-09-27T01:30:36.454Z,90.22
2023-09-27T01:33:08.265Z,89.57
2023-09-27T01:35:45.095Z,89.72
2023-09-27T01:38:13.037Z,89.74
2023-09-27T01:40:44.680Z,90.30
2023-09-27T01:43:12.714Z,90.60
2023-09-27T01:45:40.155Z,91.34
2023-09-27T01:48:07.746Z,91.13
2023-09-27T01:50:35.695Z,90.89
2023-09-27T01:53:04.374Z,91.42
2023-09-27T01:55:32.442Z,91.61
2023-09-27T01:58:01.264Z,91.23
2023-09-27T02:00:28.935Z,91.49
2023-09-27T02:02:57.688Z,91.66
2023-09-27T02:05:25.908Z,91.24
2023-09-27T02:07:53.365Z,91.15
2023-09-27T02:10:21.690Z,91.55
2023-09-27T02:12:48.988Z,91.92
2023-09-27T02:15:16.664Z,91.86
2023-09-27T02:17:44.255Z,92.35
2023-09-27T02:20:13.679Z,92.53
2023-09-27T02:22:41.723Z,92.80
2023-09-27T02:25:10.852Z,92.89
2023-09-27T02:27:41.844Z,93.19
2023-09-27T02:30:12.580Z,92.84
2023-09-27T02:32:43.797Z,93.24
2023-09-27T02:35:12.085Z,93.70
2023-09-27T02:37:41.071Z,94.43
2023-09-27T02:40:15.787Z,94.45
2023-09-27T02:42:44.504Z,94.76
2023-09-27T02:45:12.673Z,94.72
2023-09-27T02:47:40.882Z,94.63
2023-09-27T02:50:11.544Z,94.36
2023-09-27T02:52:42.173Z,94.77
2023-09-27T02:55:10.643Z,95.52
2023-09-27T02:57:39.759Z,95.98
2023-09-27T03:00:07.904Z,95.96
2023-09-27T03:02:36.135Z,96.38
2023-09-27T03:05:08.161Z,96.73
2023-09-27T03:07:35.437Z,96.09
2023-09-27T03:10:09.844Z,96.72
2023-09-27T03:12:39.743Z,97.06
2023-09-27T03:15:12.670Z,96.55
2023-09-27T03:17:43.683Z,96.83
2023-09-27T03:20:20.852Z,96.86
2023-09-27T03:22:49.388Z,96.25
2023-09-27T03:25:20.063Z,96.45
2023-09-27T03:27:47.926Z,96.35
2023-09-27T03:30:16.180Z,96.87
2023-09-27T03:32:43.925Z,96.94
2023-09-27T03:35:11.270Z,96.96
2023-09-27T03:37:38.583Z,97.47
2023-09-27T03:40:14.699Z,97.14
2023-09-27T03:42:46.308Z,96.97
2023-09-27T03:45:15.562Z,97.67
2023-09-27T03:47:46.970Z,98.02
2023-09-27T03:50:18.829Z,98.71
2023-09-27T03:52:46.181Z,98.26
2023-09-27T03:55:13.698Z,98.05
2023-09-27T03:57:41.371Z,98.99
2023-09-27T04:00:15.043Z,98.86
2023-09-27T04:02:43.901Z,99.09
2023-09-27T04:05:12.211Z,99.56
2023-09-27T04:07:40.491Z,99.30
2023-09-27T04:10:09.110Z,99.20
2023-09-27T04:12:36.533Z,99.59
2023-09-27T04:15:07.926Z,100.00
2023-09-27T04:17:35.330Z,99.78
2023-09-27T04:20:07.973Z,100.00
2023-09-27T04:22:35.439Z,98.90
2023-09-27T04:25:02.993Z,99.44
2023-09-27T04:27:30.264Z,99.33
2023-09-27T04:29:57.560Z,98.76
2023-09-27T04:32:26.596Z,98.28
2023-09-27T04:34:53.868Z,98.08
2023-09-27T04:37:21.134Z,98.12
2023-09-27T04:39:48.492Z,97.50
2023-09-27T04:42:15.780Z,97.00
2023-09-27T04:44:43.240Z,97.51
2023-09-27T04:47:10.647Z,97.66
2023-09-27T04:49:37.972Z,97.85
2023-09-27T04:52:05.272Z,96.98
2023-09-27T04:54:33.046Z,96.65
2023-09-27T04:57:00.331Z,96.37
2023-09-27T04:59:27.655Z,96.26
2023-09-27T05:01:54.942Z,95.72
2023-09-27T05:04:22.559Z,95.53
2023-09-27T05:06:49.976Z,94.79
2023-09-27T05:09:19.260Z,94.51
2023-09-27T05:11:48.073Z,93.56
2023-09-27T05:14:15.612Z,93.11
2023-09-27T05:16:43.040Z,92.14
2023-09-27T05:19:10.440Z,91.60
2023-09-27T05:21:40.549Z,90.72
2023-09-27T05:24:08.829Z,90.45
2023-09-27T05:26:36.195Z,89.55
2023-09-27T05:29:03.782Z,89.26
2023-09-27T05:31:31.207Z,88.51
2023-09-27T05:33:58.587Z,87.72
2023-09-27T05:36:25.872Z,86.93
2023-09-27T05:38:53.393Z,87.34
2023-09-27T05:41:20.991Z,87.13
2023-09-27T05:43:48.349Z,87.02
2023-09-27T05:46:15.716Z,86.32
2023-09-27T05:48:43.051Z,85.39
2023-09-27T05:51:10.760Z,84.17
2023-09-27T05:53:38.049Z,84.09
2023-09-27T05:56:05.451Z,83.48
2023-09-27T05:58:37.098Z,83.15
2023-09-27T06:01:06.120Z,83.02
2023-09-27T06:03:33.617Z,82.77
2023-09-27T06:06:01.049Z,82.67
2023-09-27T06:08:28.409Z,81.71
2023-09-27T06:10:56.914Z,81.41
2023-09-27T06:13:25.130Z,81.02
2023-09-27T06:15:52.613Z,80.27
2023-09-27T06:18:20.419Z,79.83
2023-09-27T06:20:48.740Z,79.35
2023-09-27T06:23:16.094Z,79.09
2023-09-27T06:25:44.980Z,78.61
2023-09-27T06:28:14.646Z,78.34
2023-09-27T06:30:42.252Z,78.08
2023-09-27T06:33:10.480Z,77.54
2023-09-27T06:35:38.079Z,77.21
2023-09-27T06:38:06.929Z,76.80
2023-09-27T06:40:34.259Z,76.20
2023-09-27T06:43:02.059Z,75.67
2023-09-27T06:45:30.128Z,75.23
2023-09-27T06:47:57.771Z,75.21
2023-09-27T06:50:25.313Z,75.22
2023-09-27T06:52:59.957Z,74.98
2023-09-27T06:55:34.658Z,73.96
2023-09-27T06:58:02.008Z,73.72
2023-09-27T07:00:29.417Z,73.34
2023-09-27T07:02:56.955Z,72.89
2023-09-27T07:05:24.733Z,72.28
2023-09-27T07:07:52.106Z,71.74
2023-09-27T07:10:19.501Z,71.58
2023-09-27T07:12:47.518Z,71.33
2023-09-27T07:15:15.471Z,70.81
2023-09-27T07:17:44.928Z,70.57
2023-09-27T07:20:39.046Z,70.47
2023-09-27T07:23:07.657Z,69.98
2023-09-27T07:25:39.263Z,69.79
2023-09-27T07:28:06.946Z,69.42
2023-09-27T07:30:34.984Z,69.12
2023-09-27T07:33:07.422Z,68.98
2023-09-27T07:35:36.340Z,65.86
2023-09-27T07:38:03.978Z,63.71
2023-09-27T07:40:31.533Z,62.54
2023-09-27T07:42:59.903Z,61.08
2023-09-27T07:45:31.453Z,58.46
2023-09-27T07:47:58.949Z,58.75
2023-09-27T07:50:32.587Z,58.05
2023-09-27T07:53:00.601Z,58.68
2023-09-27T07:55:28.217Z,57.87
2023-09-27T07:57:55.715Z,57.79
2023-09-27T08:00:29.597Z,56.95
2023-09-27T08:02:59.433Z,54.64
2023-09-27T08:05:27.005Z,55.66
2023-09-27T08:07:54.272Z,54.80
2023-09-27T08:10:22.514Z,53.37
2023-09-27T08:12:49.932Z,53.93
2023-09-27T08:15:19.140Z,52.88
2023-09-27T08:17:48.731Z,52.58
2023-09-27T08:20:16.610Z,53.25
2023-09-27T08:22:44.032Z,52.81
2023-09-27T08:25:18.437Z,52.68
2023-09-27T08:27:46.133Z,52.55
2023-09-27T08:30:13.985Z,52.65
2023-09-27T08:32:43.030Z,51.59
2023-09-27T08:35:11.109Z,51.14
2023-09-27T08:37:38.593Z,51.38
2023-09-27T08:40:08.563Z,51.67
2023-09-27T08:42:36.001Z,51.58
2023-09-27T08:45:04.331Z,52.17
2023-09-27T08:47:32.037Z,52.34
2023-09-27T08:50:01.016Z,51.45
2023-09-27T08:52:29.331Z,51.68
2023-09-27T08:54:56.604Z,51.81
2023-09-27T08:57:25.386Z,52.87
2023-09-27T08:59:53.060Z,52.00
2023-09-27T09:02:20.794Z,52.74
2023-09-27T09:04:48.168Z,52.39
2023-09-27T09:07:15.870Z,52.42
2023-09-27T09:09:43.225Z,51.52
2023-09-27T09:12:10.999Z,51.36
2023-09-27T09:14:50.842Z,51.59
2023-09-27T09:17:20.253Z,51.67
2023-09-27T09:20:16.713Z,51.77
2023-09-27T09:22:47.777Z,51.46
2023-09-27T09:25:15.240Z,51.53
2023-09-27T09:27:44.992Z,51.49
2023-09-27T09:30:13.030Z,50.47
2023-09-27T09:32:52.976Z,50.46
2023-09-27T09:35:33.210Z,50.16
2023-09-27T09:38:02.784Z,50.15
2023-09-27T09:40:31.528Z,49.89
2023-09-27T09:43:01.034Z,49.86
2023-09-27T09:45:30.201Z,47.71
2023-09-27T09:47:58.777Z,46.65
2023-09-27T09:50:28.311Z,47.83
2023-09-27T09:52:58.655Z,47.78
2023-09-27T09:55:48.545Z,46.79
2023-09-27T09:58:14.818Z,46.39
2023-09-27T10:00:43.556Z,46.36
2023-09-27T10:03:11.002Z,46.22
2023-09-27T10:05:39.558Z,46.58
2023-09-27T10:08:07.416Z,45.16
2023-09-27T10:10:35.465Z,45.49
2023-09-27T10:13:05.461Z,45.15
2023-09-27T10:15:34.790Z,44.60
2023-09-27T10:18:23.884Z,43.52
2023-09-27T10:21:06.537Z,43.42
2023-09-27T10:23:49.138Z,42.11
2023-09-27T10:26:34.480Z,42.94
2023-09-27T10:29:15.239Z,42.91
2023-09-27T10:31:58.120Z,42.81
2023-09-27T10:34:37.480Z,41.45
2023-09-27T10:37:17.931Z,41.24
2023-09-27T10:40:23.806Z,40.00
2023-09-27T10:42:51.177Z,39.08
2023-09-27T10:45:18.876Z,36.81
2023-09-27T10:47:48.111Z,36.02
2023-09-27T10:50:17.828Z,36.46
2023-09-27T10:52:45.355Z,35.54
2023-09-27T10:55:13.538Z,35.79
2023-09-27T10:57:41.485Z,35.28
2023-09-27T11:00:12.640Z,36.26
2023-09-27T11:02:40.310Z,35.73
2023-09-27T11:05:09.064Z,35.56
2023-09-27T11:07:43.812Z,35.40
2023-09-27T11:10:11.368Z,34.70
2023-09-27T11:12:38.747Z,34.77
2023-09-27T11:15:07.023Z,34.41
2023-09-27T11:17:34.416Z,34.63
2023-09-27T11:20:11.904Z,34.58
2023-09-27T11:22:39.265Z,34.99
2023-09-27T11:25:26.292Z,34.05
2023-09-27T11:27:53.657Z,34.73
2023-09-27T11:30:27.572Z,34.23
2023-09-27T11:32:55.784Z,32.87
2023-09-27T11:35:25.438Z,33.39
2023-09-27T11:38:13.400Z,32.78
2023-09-27T11:40:44.123Z,32.77
2023-09-27T11:43:13.647Z,32.63
2023-09-27T11:45:48.994Z,32.29
2023-09-27T11:48:17.486Z,31.83
2023-09-27T11:50:45.011Z,32.43
2023-09-27T11:53:13.856Z,32.82
2023-09-27T11:55:42.487Z,32.45
2023-09-27T11:58:10.267Z,32.50
2023-09-27T12:00:37.815Z,32.33
2023-09-27T12:03:06.057Z,30.87
2023-09-27T12:05:39.249Z,30.01
2023-09-27T12:08:06.965Z,31.65
2023-09-27T12:10:34.331Z,31.13
2023-09-27T12:13:01.744Z,31.23
2023-09-27T12:15:29.490Z,30.78
2023-09-27T12:17:57.052Z,30.73
2023-09-27T12:22:59.781Z,30.12
2023-09-27T12:25:28.223Z,30.46
2023-09-27T12:27:55.611Z,30.92
2023-09-27T12:30:22.880Z,30.77
2023-09-27T12:32:52.477Z,28.91
2023-09-27T12:35:21.469Z,28.51
2023-09-27T12:37:49.471Z,28.73
2023-09-27T12:40:16.978Z,29.46
2023-09-27T12:42:44.339Z,28.53
2023-09-27T12:45:11.837Z,28.69
2023-09-27T12:47:39.280Z,28.81
2023-09-27T12:50:07.905Z,28.96
2023-09-27T12:52:35.808Z,29.55
2023-09-27T12:55:03.347Z,29.15
2023-09-27T12:57:30.627Z,29.25
2023-09-27T12:59:58.121Z,29.17
2023-09-27T13:02:28.706Z,29.01
2023-09-27T13:04:56.097Z,28.72
2023-09-27T13:07:23.422Z,28.43
2023-09-27T13:09:51.484Z,28.72
2023-09-27T13:12:18.907Z,28.80
2023-09-27T13:14:46.568Z,28.43
2023-09-27T13:17:13.900Z,29.08
2023-09-27T13:19:41.270Z,28.54
2023-09-27T13:22:08.618Z,28.47
2023-09-27T13:24:35.949Z,28.70
2023-09-27T13:27:03.221Z,28.73
2023-09-27T13:29:30.592Z,28.75
2023-09-27T13:31:58.491Z,27.93
2023-09-27T13:34:25.736Z,28.26
2023-09-27T13:36:53.171Z,27.82
2023-09-27T13:39:26.316Z,27.91
2023-09-27T13:41:53.913Z,27.94
2023-09-27T13:44:21.380Z,27.83
2023-09-27T13:46:50.510Z,27.19
2023-09-27T13:49:18.349Z,27.74
2023-09-27T13:51:45.634Z,27.44
2023-09-27T13:54:15.717Z,27.78
2023-09-27T13:56:43.155Z,27.59
2023-09-27T13:59:10.465Z,27.01
2023-09-27T14:01:38.173Z,26.77
2023-09-27T14:04:05.768Z,26.35
2023-09-27T14:06:33.105Z,26.03
2023-09-27T14:09:00.417Z,25.08
2023-09-27T14:11:27.873Z,23.86
2023-09-27T14:13:55.333Z,22.79
2023-09-27T14:16:23.005Z,22.69
2023-09-27T14:18:50.359Z,22.71
2023-09-27T14:21:17.794Z,21.26
2023-09-27T14:23:45.589Z,22.27
2023-09-27T14:26:13.109Z,21.94
2023-09-27T14:28:40.569Z,21.65
2023-09-27T14:31:07.979Z,22.19
2023-09-27T14:33:36.464Z,22.12
2023-09-27T14:36:05.325Z,22.08
2023-09-27T14:38:35.794Z,22.26
2023-09-27T14:41:12.214Z,22.96
2023-09-27T14:43:39.866Z,22.74
2023-09-27T14:46:11.676Z,22.78
2023-09-27T14:48:39.673Z,23.13
2023-09-27T14:51:09.116Z,23.08
2023-09-27T14:53:41.899Z,23.34
2023-09-27T14:56:09.639Z,23.66
2023-09-27T14:58:37.030Z,24.31
2023-09-27T15:01:05.345Z,25.78
2023-09-27T15:03:33.560Z,27.14
2023-09-27T15:06:04.712Z,28.55
2023-09-27T15:08:32.106Z,29.97
2023-09-27T15:10:59.571Z,30.98
2023-09-27T15:13:27.667Z,31.05
2023-09-27T15:15:55.496Z,31.42
2023-09-27T15:18:25.749Z,32.16
2023-09-27T15:20:54.880Z,33.68
2023-09-27T15:23:22.362Z,34.15
2023-09-27T15:25:50.131Z,35.60
2023-09-27T15:28:17.742Z,37.10
2023-09-27T15:30:45.214Z,37.37
2023-09-27T15:33:12.661Z,37.98
2023-09-27T15:35:40.281Z,39.41
2023-09-27T15:38:08.009Z,40.05
2023-09-27T15:40:35.469Z,40.45
2023-09-27T15:43:02.915Z,41.08
2023-09-27T15:45:31.155Z,42.23
2023-09-27T15:47:58.793Z,43.96
2023-09-27T15:50:27.264Z,44.08
2023-09-27T15:52:54.605Z,45.00
2023-09-27T15:55:21.932Z,46.07
2023-09-27T15:57:49.300Z,47.13
2023-09-27T16:00:17.500Z,48.13
2023-09-27T16:02:45.926Z,48.36
2023-09-27T16:05:13.646Z,48.84
2023-09-27T16:07:41.297Z,49.71
2023-09-27T16:10:10.225Z,50.59
2023-09-27T16:12:37.771Z,50.89
2023-09-27T16:15:07.882Z,50.37
2023-09-27T16:17:36.775Z,50.91
2023-09-27T16:20:06.260Z,50.16
2023-09-27T16:22:33.612Z,49.53
2023-09-27T16:25:04.860Z,48.89
2023-09-27T16:27:32.589Z,48.40
2023-09-27T16:30:00.090Z,49.26
2023-09-27T16:32:27.961Z,49.73
2023-09-27T16:34:55.418Z,50.77
2023-09-27T16:37:22.863Z,51.11
2023-09-27T16:39:50.697Z,52.03
2023-09-27T16:42:18.054Z,53.21
2023-09-27T16:44:45.435Z,53.98
2023-09-27T16:47:12.839Z,54.97
2023-09-27T16:49:40.836Z,54.63
2023-09-27T16:52:08.119Z,54.88
2023-09-27T16:54:35.468Z,55.20
2023-09-27T16:57:03.793Z,55.83
2023-09-27T16:59:31.140Z,56.33
2023-09-27T17:01:58.644Z,55.35
2023-09-27T17:04:26.126Z,56.34
2023-09-27T17:06:53.480Z,55.96
2023-09-27T17:09:20.788Z,56.58
2023-09-27T17:11:48.066Z,56.53
2023-09-27T17:14:15.355Z,56.62
2023-09-27T17:16:43.055Z,56.50
2023-09-27T17:19:10.365Z,56.79
2023-09-27T17:21:39.507Z,57.24
2023-09-27T17:24:07.081Z,57.89
2023-09-27T17:26:34.442Z,57.87
2023-09-27T17:29:01.776Z,58.38
2023-09-27T17:31:29.199Z,57.46
2023-09-27T17:33:56.765Z,57.53
2023-09-27T17:36:24.233Z,57.71
2023-09-27T17:38:51.520Z,59.20
2023-09-27T17:41:18.890Z,59.27
2023-09-27T17:43:46.241Z,59.67
2023-09-27T17:46:23.219Z,59.79
2023-09-27T17:48:50.737Z,59.40
2023-09-27T17:51:18.076Z,60.40
2023-09-27T17:53:45.471Z,60.39
2023-09-27T17:56:12.789Z,61.88
2023-09-27T17:58:40.151Z,61.81
2023-09-27T18:01:07.523Z,62.38
2023-09-27T18:03:34.926Z,61.78
2023-09-27T18:06:06.528Z,61.00
2023-09-27T18:08:34.096Z,62.40
2023-09-27T18:11:15.534Z,63.06
2023-09-27T18:13:43.393Z,62.80
2023-09-27T18:16:18.078Z,62.80
2023-09-27T18:18:46.103Z,63.91
2023-09-27T18:21:13.710Z,64.07
2023-09-27T18:23:42.424Z,64.86
2023-09-27T18:26:13.129Z,64.41
2023-09-27T18:28:40.458Z,63.91
2023-09-27T18:31:08.379Z,63.21
2023-09-27T18:33:35.694Z,64.54
2023-09-27T18:36:03.941Z,64.91
2023-09-27T18:38:31.259Z,65.09
2023-09-27T18:40:58.704Z,65.61
2023-09-27T18:43:26.192Z,66.24
2023-09-27T18:45:53.768Z,66.97
2023-09-27T18:48:21.477Z,67.06
2023-09-27T18:50:50.002Z,66.73
2023-09-27T18:53:17.660Z,66.17
2023-09-27T18:55:45.705Z,67.15
2023-09-27T18:58:15.358Z,66.52
2023-09-27T19:00:43.062Z,66.08
2023-09-27T19:03:11.013Z,66.95
2023-09-27T19:05:38.380Z,66.93
2023-09-27T19:08:05.862Z,67.63
2023-09-27T19:10:33.495Z,67.84
2023-09-27T19:13:00.866Z,68.43
2023-09-27T19:15:28.237Z,68.69
2023-09-27T19:17:57.910Z,69.09
2023-09-27T19:20:25.529Z,69.47
2023-09-27T19:22:54.077Z,70.08
2023-09-27T19:25:21.993Z,69.40
2023-09-27T19:27:49.863Z,69.40
2023-09-27T19:30:17.347Z,69.50
2023-09-27T19:32:45.233Z,70.26
2023-09-27T19:35:16.038Z,70.00
2023-09-27T19:37:43.714Z,70.14
2023-09-27T19:40:11.541Z,70.04
2023-09-27T19:42:38.981Z,70.59
2023-09-27T19:45:07.009Z,70.70
2023-09-27T19:47:36.119Z,71.04
2023-09-27T19:50:05.548Z,71.65
2023-09-27T19:52:34.065Z,71.95
2023-09-27T19:55:01.643Z,72.42
2023-09-27T19:57:29.829Z,72.55
2023-09-27T19:59:57.179Z,73.24
2023-09-27T20:02:24.776Z,73.40
2023-09-27T20:04:54.618Z,73.88
2023-09-27T20:07:23.479Z,73.65
2023-09-27T20:09:50.847Z,74.09
2023-09-27T20:12:18.145Z,73.94
2023-09-27T20:14:45.505Z,74.00
2023-09-27T20:17:13.136Z,73.65
2023-09-27T20:19:40.582Z,73.63
2023-09-27T20:22:08.229Z,74.34
2023-09-27T20:24:38.900Z,75.02
2023-09-27T20:27:06.327Z,75.57
2023-09-27T20:29:33.677Z,75.88
2023-09-27T20:32:01.257Z,76.45
2023-09-27T20:34:28.770Z,75.95
2023-09-27T20:36:56.069Z,76.29
2023-09-27T20:39:23.380Z,76.39
2023-09-27T20:41:50.896Z,76.90
2023-09-27T20:44:18.256Z,77.12
2023-09-27T20:46:45.677Z,77.07
2023-09-27T20:49:13.019Z,76.87
2023-09-27T20:51:40.404Z,76.92
2023-09-27T20:54:07.719Z,77.53
2023-09-27T20:56:34.976Z,76.81
2023-09-27T20:59:02.402Z,77.09
2023-09-27T21:01:36.887Z,76.73
2023-09-27T21:04:04.867Z,75.96
2023-09-27T21:06:32.282Z,76.16
2023-09-27T21:09:03.782Z,76.01
2023-09-27T21:11:31.375Z,75.07
2023-09-27T21:14:00.520Z,74.98
2023-09-27T21:16:29.262Z,74.96
2023-09-27T21:18:56.734Z,75.07
2023-09-27T21:21:24.172Z,74.16
2023-09-27T21:23:52.792Z,74.57
2023-09-27T21:26:20.603Z,75.17
2023-09-27T21:28:48.021Z,75.21
2023-09-27T21:31:15.450Z,76.28
2023-09-27T21:33:43.267Z,76.27
2023-09-27T21:36:10.593Z,77.14
2023-09-27T21:38:38.011Z,77.61
2023-09-27T21:41:05.446Z,77.58
2023-09-27T21:43:35.638Z,77.78
2023-09-27T21:46:04.043Z,77.23
2023-09-27T21:48:31.598Z,77.51
2023-09-27T21:50:58.871Z,77.58
2023-09-27T21:53:26.170Z,78.23
2023-09-27T21:55:54.284Z,78.18
2023-09-27T21:58:21.679Z,78.19
2023-09-27T22:00:49.045Z,78.08
2023-09-27T22:03:18.342Z,77.96
2023-09-27T22:05:45.895Z,77.85
2023-09-27T22:08:24.131Z,78.07
2023-09-27T22:10:51.571Z,77.54
2023-09-27T22:13:24.877Z,77.75
2023-09-27T22:15:53.201Z,78.34
2023-09-27T22:18:21.161Z,78.71
2023-09-27T22:20:48.872Z,77.68
2023-09-27T22:23:25.420Z,78.21
2023-09-27T22:25:54.908Z,78.08
2023-09-27T22:28:23.124Z,78.16
2023-09-27T22:30:50.442Z,78.30
2023-09-27T22:33:26.513Z,78.40
2023-09-27T22:35:53.774Z,78.57
2023-09-27T22:38:21.034Z,78.59
2023-09-27T22:40:48.649Z,78.82
2023-09-27T22:43:17.373Z,79.28
2023-09-27T22:45:49.039Z,79.24
2023-09-27T22:48:17.296Z,80.05
2023-09-27T22:50:46.060Z,79.90
2023-09-27T22:53:14.751Z,80.29
2023-09-27T22:55:51.536Z,80.92
2023-09-27T22:58:23.395Z,81.03
2023-09-27T23:00:58.391Z,81.54
2023-09-27T23:03:30.734Z,81.75
2023-09-27T23:05:58.453Z,82.48
2023-09-27T23:08:28.610Z,82.32
2023-09-27T23:10:58.005Z,82.32
2023-09-27T23:13:32.384Z,83.06
2023-09-27T23:16:00.584Z,83.86
2023-09-27T23:18:30.401Z,84.79
2023-09-27T23:20:58.881Z,85.23
2023-09-27T23:23:26.516Z,85.25
2023-09-27T23:25:55.321Z,84.99
2023-09-27T23:28:31.641Z,84.22
2023-09-27T23:31:09.424Z,83.31
2023-09-27T23:33:43.796Z,82.89
2023-09-27T23:36:25.347Z,83.66
2023-09-27T23:38:59.765Z,82.97
2023-09-27T23:41:31.093Z,82.71
2023-09-27T23:44:05.881Z,83.28
2023-09-27T23:46:38.406Z,83.00
2023-09-27T23:49:06.611Z,82.38
2023-09-27T23:51:34.165Z,82.73
2023-09-27T23:54:03.876Z,82.57
2023-09-27T23:56:31.613Z,82.61
2023-09-27T23:59:09.859Z,82.60
